createdAt,value
2023-05-03T00:01:31.738Z,75.08
2023-05-03T00:03:58.464Z,74.97
2023-05-03T00:06:25.715Z,75.09
2023-05-03T00:08:52.496Z,74.69
2023-05-03T00:11:19.244Z,75.31
2023-05-03T00:13:46.037Z,75.69
2023-05-03T00:16:12.990Z,75.23
2023-05-03T00:18:39.658Z,75.50
2023-05-03T00:21:06.306Z,76.18
2023-05-03T00:23:32.918Z,76.60
2023-05-03T00:25:59.621Z,76.30
2023-05-03T00:28:26.831Z,76.42
2023-05-03T00:30:53.584Z,76.47
2023-05-03T00:33:20.375Z,76.47
2023-05-03T00:35:47.046Z,76.77
2023-05-03T00:38:16.538Z,76.22
2023-05-03T00:40:43.317Z,77.20
2023-05-03T00:43:12.326Z,76.66
2023-05-03T00:45:39.022Z,76.67
2023-05-03T00:48:06.379Z,76.77
2023-05-03T00:50:33.152Z,76.74
2023-05-03T00:52:59.846Z,77.31
2023-05-03T00:55:28.143Z,77.30
2023-05-03T00:57:54.802Z,76.99
2023-05-03T01:00:22.331Z,77.27
2023-05-03T01:02:49.498Z,77.34
2023-05-03T01:05:16.624Z,77.25
2023-05-03T01:08:06.156Z,76.99
2023-05-03T01:10:45.117Z,77.30
2023-05-03T01:13:21.261Z,77.35
2023-05-03T01:16:01.548Z,77.03
2023-05-03T01:18:34.510Z,77.41
2023-05-03T01:21:01.604Z,77.15
2023-05-03T01:24:04.827Z,77.15
2023-05-03T01:26:31.523Z,76.81
2023-05-03T01:28:58.528Z,77.39
2023-05-03T01:31:33.995Z,77.38
2023-05-03T01:34:26.016Z,76.89
2023-05-03T01:36:53.582Z,77.06
2023-05-03T01:39:23.167Z,76.55
2023-05-03T01:41:50.593Z,77.09
2023-05-03T01:44:17.257Z,77.02
2023-05-03T01:46:46.974Z,76.89
2023-05-03T01:49:13.855Z,76.54
2023-05-03T01:51:40.571Z,76.44
2023-05-03T01:54:07.384Z,76.80
2023-05-03T01:56:34.730Z,76.59
2023-05-03T01:59:01.554Z,76.48
2023-05-03T02:01:28.366Z,76.60
2023-05-03T02:03:55.088Z,76.38
2023-05-03T02:06:21.842Z,76.41
2023-05-03T02:08:48.488Z,76.79
2023-05-03T02:11:15.260Z,76.37
2023-05-03T02:13:41.956Z,76.48
2023-05-03T02:16:09.663Z,76.75
2023-05-03T02:18:36.868Z,76.45
2023-05-03T02:21:04.939Z,76.99
2023-05-03T02:23:31.573Z,76.76
2023-05-03T02:25:58.218Z,76.63
2023-05-03T02:28:24.857Z,77.02
2023-05-03T02:30:51.878Z,77.22
2023-05-03T02:33:18.557Z,77.39
2023-05-03T02:35:45.202Z,77.32
2023-05-03T02:38:12.096Z,76.82
2023-05-03T02:40:38.679Z,76.98
2023-05-03T02:43:05.573Z,77.34
2023-05-03T02:45:32.227Z,77.30
2023-05-03T02:47:59.601Z,76.87
2023-05-03T02:50:26.276Z,76.95
2023-05-03T02:52:53.355Z,77.42
2023-05-03T02:55:19.998Z,77.87
2023-05-03T02:57:46.666Z,78.35
2023-05-03T03:00:15.437Z,77.57
2023-05-03T03:02:42.202Z,78.03
2023-05-03T03:05:09.459Z,78.09
2023-05-03T03:07:37.441Z,78.20
2023-05-03T03:10:04.638Z,78.45
2023-05-03T03:12:31.527Z,79.08
2023-05-03T03:14:58.165Z,79.16
2023-05-03T03:17:24.866Z,79.37
2023-05-03T03:19:51.836Z,79.40
2023-05-03T03:22:18.503Z,80.68
2023-05-03T03:24:45.827Z,80.45
2023-05-03T03:27:12.518Z,80.64
2023-05-03T03:29:39.132Z,81.33
2023-05-03T03:32:06.434Z,80.91
2023-05-03T03:34:33.368Z,80.79
2023-05-03T03:37:00.050Z,81.27
2023-05-03T03:39:26.685Z,81.10
2023-05-03T03:41:53.343Z,81.48
2023-05-03T03:44:19.990Z,81.36
2023-05-03T03:46:46.682Z,81.11
2023-05-03T03:49:13.590Z,81.77
2023-05-03T03:51:40.352Z,81.91
2023-05-03T03:54:07.010Z,82.13
2023-05-03T03:56:33.756Z,81.82
2023-05-03T03:59:00.485Z,81.81
2023-05-03T04:01:28.176Z,81.53
2023-05-03T04:03:54.928Z,81.62
2023-05-03T04:06:21.841Z,82.09
2023-05-03T04:08:48.512Z,81.38
2023-05-03T04:11:15.151Z,82.10
2023-05-03T04:13:41.764Z,82.02
2023-05-03T04:16:08.512Z,81.78
2023-05-03T04:18:35.419Z,82.45
2023-05-03T04:21:02.159Z,81.89
2023-05-03T04:23:28.916Z,81.81
2023-05-03T04:25:57.234Z,81.67
2023-05-03T04:28:25.894Z,81.65
2023-05-03T04:30:53.357Z,81.98
2023-05-03T04:33:23.234Z,81.53
2023-05-03T04:35:51.272Z,81.01
2023-05-03T04:38:18.932Z,81.47
2023-05-03T04:40:46.404Z,81.59
2023-05-03T04:43:13.101Z,82.31
2023-05-03T04:45:40.228Z,81.85
2023-05-03T04:48:07.102Z,81.07
2023-05-03T04:50:34.086Z,81.42
2023-05-03T04:53:00.758Z,81.77
2023-05-03T04:55:27.412Z,81.59
2023-05-03T04:57:55.659Z,82.01
2023-05-03T05:00:22.668Z,81.95
2023-05-03T05:02:49.425Z,81.45
2023-05-03T05:05:17.382Z,81.59
2023-05-03T05:07:44.647Z,82.15
2023-05-03T05:10:11.390Z,81.28
2023-05-03T05:12:38.068Z,80.60
2023-05-03T05:15:05.242Z,81.34
2023-05-03T05:17:31.973Z,81.79
2023-05-03T05:19:58.708Z,82.04
2023-05-03T05:22:25.415Z,82.00
2023-05-03T05:24:52.317Z,82.34
2023-05-03T05:27:19.117Z,82.38
2023-05-03T05:29:45.861Z,82.23
2023-05-03T05:32:13.055Z,82.08
2023-05-03T05:34:45.652Z,82.16
2023-05-03T05:37:12.673Z,82.24
2023-05-03T05:39:39.463Z,81.99
2023-05-03T05:42:06.211Z,81.61
2023-05-03T05:44:32.897Z,82.03
2023-05-03T05:46:59.576Z,81.62
2023-05-03T05:49:26.181Z,79.98
2023-05-03T05:51:52.750Z,79.76
2023-05-03T05:54:19.343Z,80.48
2023-05-03T05:56:45.955Z,80.54
2023-05-03T05:59:12.573Z,79.95
2023-05-03T06:01:41.877Z,80.19
2023-05-03T06:04:08.641Z,80.72
2023-05-03T06:06:35.482Z,80.95
2023-05-03T06:09:12.957Z,81.42
2023-05-03T06:11:50.269Z,80.60
2023-05-03T06:14:17.435Z,79.71
2023-05-03T06:16:44.737Z,79.83
2023-05-03T06:19:11.373Z,79.99
2023-05-03T06:21:38.172Z,80.69
2023-05-03T06:24:04.999Z,80.50
2023-05-03T06:26:31.799Z,80.54
2023-05-03T06:29:00.865Z,80.22
2023-05-03T06:31:27.755Z,80.62
2023-05-03T06:33:54.483Z,80.92
2023-05-03T06:36:21.236Z,80.80
2023-05-03T06:38:47.872Z,80.73
2023-05-03T06:41:14.529Z,80.24
2023-05-03T06:43:41.147Z,80.10
2023-05-03T06:46:07.822Z,80.40
2023-05-03T06:48:34.438Z,80.75
2023-05-03T06:51:01.010Z,80.42
2023-05-03T06:53:28.988Z,81.00
2023-05-03T06:55:56.040Z,81.08
2023-05-03T06:58:22.773Z,81.45
2023-05-03T07:00:53.278Z,81.51
2023-05-03T07:03:19.982Z,80.87
2023-05-03T07:05:47.355Z,80.81
2023-05-03T07:08:14.003Z,80.17
2023-05-03T07:10:41.945Z,81.10
2023-05-03T07:13:08.696Z,81.02
2023-05-03T07:15:35.338Z,80.77
2023-05-03T07:18:02.061Z,80.90
2023-05-03T07:20:28.930Z,80.92
2023-05-03T07:22:55.872Z,80.69
2023-05-03T07:25:22.566Z,80.79
2023-05-03T07:27:49.308Z,80.24
2023-05-03T07:30:16.096Z,80.41
2023-05-03T07:32:42.938Z,80.18
2023-05-03T07:35:09.884Z,79.98
2023-05-03T07:37:38.661Z,80.34
2023-05-03T07:40:07.093Z,80.75
2023-05-03T07:42:34.071Z,80.63
2023-05-03T07:45:01.295Z,79.12
2023-05-03T07:47:28.107Z,79.69
2023-05-03T07:49:55.010Z,79.79
2023-05-03T07:52:21.663Z,80.29
2023-05-03T07:54:48.320Z,80.48
2023-05-03T07:57:15.288Z,80.04
2023-05-03T07:59:43.542Z,80.26
2023-05-03T08:02:10.313Z,80.53
2023-05-03T08:04:37.567Z,80.40
2023-05-03T08:07:04.505Z,79.87
2023-05-03T08:09:31.226Z,79.82
2023-05-03T08:11:58.017Z,79.50
2023-05-03T08:14:24.716Z,79.88
2023-05-03T08:16:51.525Z,79.19
2023-05-03T08:19:18.284Z,79.99
2023-05-03T08:21:46.897Z,78.66
2023-05-03T08:24:16.170Z,78.98
2023-05-03T08:26:46.275Z,78.92
2023-05-03T08:29:12.911Z,77.97
2023-05-03T08:31:39.933Z,78.69
2023-05-03T08:34:08.144Z,78.25
2023-05-03T08:36:35.788Z,78.11
2023-05-03T08:39:06.519Z,78.62
2023-05-03T08:41:33.562Z,78.22
2023-05-03T08:44:00.911Z,78.84
2023-05-03T08:46:28.432Z,77.56
2023-05-03T08:48:55.574Z,78.09
2023-05-03T08:51:23.313Z,77.91
2023-05-03T08:53:50.266Z,77.45
2023-05-03T08:56:29.286Z,76.85
2023-05-03T08:58:56.487Z,75.10
2023-05-03T09:01:23.166Z,76.31
2023-05-03T09:03:51.218Z,76.45
2023-05-03T09:06:27.439Z,76.46
2023-05-03T09:08:54.535Z,76.11
2023-05-03T09:11:39.697Z,75.00
2023-05-03T09:14:09.816Z,74.49
2023-05-03T09:16:36.474Z,75.15
2023-05-03T09:19:04.738Z,74.92
2023-05-03T09:21:34.386Z,75.24
2023-05-03T09:24:01.765Z,75.03
2023-05-03T09:26:33.316Z,75.36
2023-05-03T09:29:02.707Z,74.30
2023-05-03T09:31:30.196Z,73.91
2023-05-03T09:33:58.993Z,73.88
2023-05-03T09:36:28.580Z,73.51
2023-05-03T09:38:56.067Z,71.80
2023-05-03T09:41:44.930Z,73.87
2023-05-03T09:44:12.371Z,73.31
2023-05-03T09:46:39.088Z,72.21
2023-05-03T09:49:05.809Z,72.25
2023-05-03T09:51:32.473Z,73.13
2023-05-03T09:53:59.330Z,73.28
2023-05-03T09:56:28.719Z,72.21
2023-05-03T09:58:55.384Z,71.95
2023-05-03T10:01:24.875Z,72.01
2023-05-03T10:03:53.063Z,72.51
2023-05-03T10:06:29.168Z,73.35
2023-05-03T10:09:29.895Z,71.65
2023-05-03T10:11:59.072Z,70.16
2023-05-03T10:14:25.879Z,70.42
2023-05-03T10:17:03.284Z,71.63
2023-05-03T10:19:29.846Z,71.40
2023-05-03T10:22:04.554Z,70.75
2023-05-03T10:24:31.633Z,73.01
2023-05-03T10:26:58.540Z,73.17
2023-05-03T10:29:54.435Z,70.04
2023-05-03T10:32:39.859Z,69.65
2023-05-03T10:35:12.845Z,69.15
2023-05-03T10:37:41.020Z,70.42
2023-05-03T10:40:11.796Z,70.34
2023-05-03T10:42:38.809Z,70.26
2023-05-03T10:45:08.952Z,71.06
2023-05-03T10:47:35.754Z,69.38
2023-05-03T10:50:24.863Z,68.66
2023-05-03T10:52:51.583Z,70.04
2023-05-03T10:55:20.949Z,70.43
2023-05-03T10:57:48.269Z,70.10
2023-05-03T11:00:18.332Z,69.04
2023-05-03T11:03:10.145Z,69.39
2023-05-03T11:05:37.534Z,69.85
2023-05-03T11:08:14.394Z,71.31
2023-05-03T11:10:41.807Z,71.41
2023-05-03T11:13:08.549Z,70.38
2023-05-03T11:15:35.740Z,70.44
2023-05-03T11:18:02.962Z,70.61
2023-05-03T11:20:29.780Z,71.14
2023-05-03T11:22:56.476Z,70.90
2023-05-03T11:25:23.196Z,70.91
2023-05-03T11:27:49.833Z,71.09
2023-05-03T11:30:16.536Z,71.21
2023-05-03T11:32:43.459Z,70.86
2023-05-03T11:35:10.947Z,69.81
2023-05-03T11:37:37.687Z,69.76
2023-05-03T11:40:05.154Z,70.90
2023-05-03T11:42:31.797Z,70.73
2023-05-03T11:44:58.481Z,70.81
2023-05-03T11:47:25.207Z,70.47
2023-05-03T11:49:55.504Z,70.24
2023-05-03T11:52:27.497Z,70.10
2023-05-03T11:54:54.353Z,70.63
2023-05-03T11:57:21.579Z,70.79
2023-05-03T11:59:49.825Z,70.81
2023-05-03T12:02:16.702Z,71.36
2023-05-03T12:04:45.345Z,71.41
2023-05-03T12:07:15.547Z,71.12
2023-05-03T12:09:47.876Z,70.74
2023-05-03T12:12:26.809Z,70.01
2023-05-03T12:15:03.558Z,69.54
2023-05-03T12:17:44.420Z,70.13
2023-05-03T12:22:55.990Z,70.95
2023-05-03T12:25:25.938Z,70.86
2023-05-03T12:28:12.806Z,70.77
2023-05-03T12:30:41.117Z,70.61
2023-05-03T12:33:10.115Z,71.62
2023-05-03T12:35:40.265Z,70.80
2023-05-03T12:38:09.806Z,71.18
2023-05-03T12:40:37.534Z,70.79
2023-05-03T12:43:04.821Z,70.70
2023-05-03T12:45:34.575Z,71.09
2023-05-03T12:48:01.769Z,71.32
2023-05-03T12:50:31.052Z,71.38
2023-05-03T12:53:01.888Z,71.96
2023-05-03T12:55:34.505Z,70.71
2023-05-03T13:00:36.510Z,69.87
2023-05-03T13:05:36.178Z,69.34
2023-05-03T13:08:09.200Z,70.11
2023-05-03T13:10:37.919Z,69.59
2023-05-03T13:13:04.655Z,70.37
2023-05-03T13:15:31.235Z,70.44
2023-05-03T13:18:01.650Z,70.04
2023-05-03T13:20:29.048Z,70.33
2023-05-03T13:22:55.945Z,69.77
2023-05-03T13:25:22.596Z,70.25
2023-05-03T13:27:52.350Z,70.49
2023-05-03T13:30:23.285Z,71.08
2023-05-03T13:32:51.351Z,71.40
2023-05-03T13:35:18.331Z,69.80
2023-05-03T13:37:45.101Z,69.06
2023-05-03T13:40:12.381Z,69.37
2023-05-03T13:42:39.051Z,68.96
2023-05-03T13:45:06.817Z,69.10
2023-05-03T13:47:59.576Z,69.34
2023-05-03T13:54:08.036Z,67.87
2023-05-03T13:56:35.114Z,69.21
2023-05-03T13:59:01.795Z,69.11
2023-05-03T14:01:28.713Z,68.54
2023-05-03T14:03:55.790Z,68.24
2023-05-03T14:10:03.424Z,68.20
2023-05-03T14:12:30.391Z,67.70
2023-05-03T14:14:57.164Z,68.08
2023-05-03T14:17:24.209Z,68.02
2023-05-03T14:19:51.579Z,67.82
2023-05-03T14:22:18.328Z,68.32
2023-05-03T14:24:45.714Z,68.37
2023-05-03T14:27:14.245Z,68.14
2023-05-03T14:29:41.116Z,68.69
2023-05-03T14:35:56.225Z,67.77
2023-05-03T14:38:23.501Z,68.07
2023-05-03T14:40:51.326Z,67.96
2023-05-03T14:43:20.739Z,68.07
2023-05-03T14:45:48.366Z,68.30
2023-05-03T14:48:15.503Z,67.71
2023-05-03T14:50:42.587Z,67.55
2023-05-03T14:53:09.440Z,67.84
2023-05-03T14:55:36.711Z,68.09
2023-05-03T14:58:03.440Z,68.15
2023-05-03T15:00:30.266Z,69.00
2023-05-03T15:02:57.206Z,68.01
2023-05-03T15:05:24.088Z,67.96
2023-05-03T15:07:50.860Z,67.40
2023-05-03T15:10:17.555Z,67.89
2023-05-03T15:12:44.554Z,67.75
2023-05-03T15:15:12.111Z,66.97
2023-05-03T15:17:39.163Z,67.41
2023-05-03T15:20:07.123Z,65.82
2023-05-03T15:22:36.126Z,66.66
2023-05-03T15:25:03.522Z,66.15
2023-05-03T15:27:30.900Z,66.67
2023-05-03T15:33:44.768Z,66.14
2023-05-03T15:36:12.432Z,64.26
2023-05-03T15:38:39.047Z,64.64
2023-05-03T15:41:06.658Z,65.70
2023-05-03T15:43:33.458Z,65.01
2023-05-03T15:46:01.392Z,65.04
2023-05-03T15:48:28.102Z,64.18
2023-05-03T15:50:54.811Z,65.25
2023-05-03T15:53:21.503Z,64.89
2023-05-03T15:55:48.263Z,63.76
2023-05-03T15:58:15.031Z,64.05
2023-05-03T16:00:42.275Z,64.43
2023-05-03T16:03:08.980Z,64.45
2023-05-03T16:05:36.980Z,64.96
2023-05-03T16:08:03.816Z,64.60
2023-05-03T16:10:30.726Z,64.75
2023-05-03T16:12:59.255Z,64.73
2023-05-03T16:15:26.049Z,63.90
2023-05-03T16:17:54.238Z,63.98
2023-05-03T16:20:21.212Z,63.92
2023-05-03T16:22:48.830Z,63.86
2023-05-03T16:25:16.625Z,63.96
2023-05-03T16:27:43.383Z,64.01
2023-05-03T16:30:10.547Z,64.32
2023-05-03T16:32:37.296Z,64.21
2023-05-03T16:35:04.454Z,65.63
2023-05-03T16:37:32.159Z,65.28
2023-05-03T16:39:59.862Z,65.17
2023-05-03T16:42:26.609Z,65.10
2023-05-03T16:44:53.260Z,65.88
2023-05-03T16:47:19.936Z,65.93
2023-05-03T16:49:46.591Z,65.59
2023-05-03T16:52:13.338Z,65.88
2023-05-03T16:54:40.268Z,65.95
2023-05-03T16:57:07.010Z,66.21
2023-05-03T16:59:33.651Z,66.91
2023-05-03T17:02:01.254Z,66.37
2023-05-03T17:04:28.338Z,67.01
2023-05-03T17:06:56.201Z,66.74
2023-05-03T17:09:22.912Z,66.50
2023-05-03T17:11:49.632Z,66.34
2023-05-03T17:14:16.330Z,66.54
2023-05-03T17:16:44.450Z,66.81
2023-05-03T17:19:11.249Z,66.48
2023-05-03T17:21:37.859Z,66.61
2023-05-03T17:24:04.701Z,66.34
2023-05-03T17:26:31.802Z,66.62
2023-05-03T17:28:58.441Z,66.86
2023-05-03T17:31:25.098Z,66.11
2023-05-03T17:33:51.767Z,66.42
2023-05-03T17:36:23.661Z,66.40
2023-05-03T17:38:50.392Z,66.66
2023-05-03T17:41:17.086Z,66.57
2023-05-03T17:43:44.722Z,66.77
2023-05-03T17:46:12.929Z,66.37
2023-05-03T17:48:42.688Z,66.44
2023-05-03T17:51:20.778Z,66.92
2023-05-03T17:53:47.490Z,66.51
2023-05-03T17:56:18.237Z,67.31
2023-05-03T17:58:44.948Z,66.83
2023-05-03T18:01:13.600Z,67.33
2023-05-03T18:04:35.122Z,67.05
2023-05-03T18:07:01.848Z,67.41
2023-05-03T18:09:28.815Z,67.30
2023-05-03T18:11:56.542Z,67.38
2023-05-03T18:14:23.333Z,67.44
2023-05-03T18:16:50.769Z,67.48
2023-05-03T18:19:19.397Z,67.74
2023-05-03T18:21:46.172Z,67.72
2023-05-03T18:24:12.912Z,67.33
2023-05-03T18:26:39.674Z,67.54
2023-05-03T18:29:06.429Z,67.92
2023-05-03T18:31:33.907Z,67.48
2023-05-03T18:34:00.750Z,67.98
2023-05-03T18:36:27.459Z,68.32
2023-05-03T18:38:54.456Z,68.09
2023-05-03T18:41:21.166Z,67.47
2023-05-03T18:43:47.980Z,67.99
2023-05-03T18:46:20.809Z,68.18
2023-05-03T18:48:47.898Z,67.91
2023-05-03T18:51:14.667Z,68.25
2023-05-03T18:53:41.370Z,68.22
2023-05-03T18:56:07.976Z,67.80
2023-05-03T18:58:34.619Z,68.37
2023-05-03T19:01:01.481Z,68.02
2023-05-03T19:03:31.407Z,67.79
2023-05-03T19:06:08.573Z,67.91
2023-05-03T19:08:35.826Z,67.46
2023-05-03T19:11:12.865Z,67.96
2023-05-03T19:13:40.320Z,68.18
2023-05-03T19:16:07.285Z,67.81
2023-05-03T19:18:37.374Z,67.76
2023-05-03T19:21:04.992Z,67.93
2023-05-03T19:23:31.626Z,67.60
2023-05-03T19:25:58.306Z,67.54
2023-05-03T19:28:25.038Z,67.15
2023-05-03T19:30:52.094Z,66.73
2023-05-03T19:33:19.595Z,66.26
2023-05-03T19:35:46.371Z,66.10
2023-05-03T19:38:13.943Z,65.83
2023-05-03T19:40:41.383Z,66.11
2023-05-03T19:43:08.162Z,66.04
2023-05-03T19:45:34.903Z,65.83
2023-05-03T19:48:01.650Z,66.09
2023-05-03T19:50:28.366Z,65.62
2023-05-03T19:52:55.061Z,65.97
2023-05-03T19:55:21.748Z,66.27
2023-05-03T19:57:49.067Z,65.97
2023-05-03T20:00:16.381Z,66.47
2023-05-03T20:02:43.272Z,66.72
2023-05-03T20:05:11.296Z,66.56
2023-05-03T20:07:38.107Z,66.81
2023-05-03T20:10:05.666Z,67.42
2023-05-03T20:12:33.921Z,67.32
2023-05-03T20:15:00.820Z,67.34
2023-05-03T20:17:27.645Z,67.08
2023-05-03T20:19:54.703Z,67.50
2023-05-03T20:22:21.712Z,67.45
2023-05-03T20:24:49.249Z,68.17
2023-05-03T20:27:17.473Z,68.32
2023-05-03T20:29:44.203Z,68.33
2023-05-03T20:32:11.053Z,68.41
2023-05-03T20:34:38.137Z,68.97
2023-05-03T20:37:04.858Z,69.21
2023-05-03T20:39:31.578Z,68.60
2023-05-03T20:41:58.489Z,69.01
2023-05-03T20:44:25.177Z,68.96
2023-05-03T20:46:51.873Z,69.18
2023-05-03T20:49:18.678Z,69.62
2023-05-03T20:51:45.340Z,69.58
2023-05-03T20:54:11.981Z,69.58
2023-05-03T20:56:38.636Z,69.72
2023-05-03T20:59:05.380Z,69.92
2023-05-03T21:01:32.079Z,69.90
2023-05-03T21:03:58.838Z,69.89
2023-05-03T21:06:25.586Z,70.60
2023-05-03T21:08:52.944Z,69.77
2023-05-03T21:11:25.894Z,70.73
2023-05-03T21:13:52.550Z,70.21
2023-05-03T21:16:19.311Z,70.95
2023-05-03T21:18:46.070Z,71.29
2023-05-03T21:21:12.786Z,70.84
2023-05-03T21:23:39.492Z,71.27
2023-05-03T21:26:06.476Z,71.60
2023-05-03T21:28:33.663Z,71.95
2023-05-03T21:31:00.344Z,72.37
2023-05-03T21:33:27.400Z,73.06
2023-05-03T21:35:54.094Z,73.25
2023-05-03T21:38:21.644Z,73.31
2023-05-03T21:40:48.365Z,74.15
2023-05-03T21:43:15.406Z,74.32
2023-05-03T21:45:47.124Z,74.92
2023-05-03T21:48:13.831Z,75.67
2023-05-03T21:50:40.556Z,75.69
2023-05-03T21:53:07.308Z,76.39
2023-05-03T21:55:33.995Z,76.32
2023-05-03T21:58:00.608Z,77.24
2023-05-03T22:00:27.404Z,77.46
2023-05-03T22:02:54.264Z,78.31
2023-05-03T22:05:20.953Z,79.42
2023-05-03T22:07:49.302Z,79.46
2023-05-03T22:10:16.468Z,79.61
2023-05-03T22:12:43.466Z,79.68
2023-05-03T22:15:10.576Z,79.79
2023-05-03T22:17:37.370Z,79.85
2023-05-03T22:20:04.685Z,79.90
2023-05-03T22:22:31.624Z,80.15
2023-05-03T22:25:01.653Z,80.61
2023-05-03T22:27:28.565Z,81.25
2023-05-03T22:29:55.338Z,81.09
2023-05-03T22:32:22.079Z,81.07
2023-05-03T22:34:48.762Z,81.26
2023-05-03T22:37:15.421Z,81.40
2023-05-03T22:39:42.322Z,80.59
2023-05-03T22:42:08.990Z,80.86
2023-05-03T22:44:37.250Z,80.36
2023-05-03T22:47:03.962Z,80.47
2023-05-03T22:49:30.670Z,80.34
2023-05-03T22:51:57.282Z,80.05
2023-05-03T22:54:23.969Z,79.32
2023-05-03T22:56:51.147Z,78.50
2023-05-03T22:59:17.863Z,78.26
2023-05-03T23:01:46.186Z,78.17
2023-05-03T23:04:13.137Z,77.45
2023-05-03T23:06:39.756Z,77.49
2023-05-03T23:09:06.594Z,77.24
2023-05-03T23:11:33.625Z,76.52
2023-05-03T23:14:00.569Z,76.84
2023-05-03T23:16:27.420Z,76.75
2023-05-03T23:18:55.679Z,76.41
2023-05-03T23:21:22.516Z,75.67
2023-05-03T23:23:49.389Z,75.86
2023-05-03T23:26:16.061Z,75.91
2023-05-03T23:28:43.249Z,75.88
2023-05-03T23:31:10.281Z,76.01
2023-05-03T23:33:37.363Z,76.12
2023-05-03T23:36:04.254Z,76.08
2023-05-03T23:38:31.114Z,75.84
2023-05-03T23:40:57.814Z,75.77
2023-05-03T23:43:24.451Z,75.87
2023-05-03T23:45:51.202Z,76.00
2023-05-03T23:48:17.881Z,75.93
2023-05-03T23:50:44.527Z,76.37
2023-05-03T23:53:11.219Z,76.03
2023-05-03T23:55:37.861Z,76.25
2023-05-03T23:58:04.839Z,75.94
